Time;durP1;ratioP1;P1;durP2;ratioP2;P2;SDS_P1;SDS_P2;PMS_P1;PMS_P2;Temp;Humidity;BMP_temperature;BMP_pressure;BME280_temperature;BME280_humidity;BME280_pressure;Samples;Min_cycle;Max_cycle;Signal;HPM_P1;HPM_P2
2021/07/13 00:01:10;;;;;;;0.25;0.25;;;20.50;99.90;;;;;;4935935;29;20205;-77
2021/07/13 00:03:38;;;;;;;0.20;0.20;;;20.30;99.90;;;;;;4935798;29;20227;-77
2021/07/13 00:06:05;;;;;;;0.30;0.30;;;20.20;99.90;;;;;;4935206;29;20288;-77
2021/07/13 00:08:34;;;;;;;0.30;0.30;;;20.30;99.90;;;;;;4935372;29;20393;-77
2021/07/13 00:11:02;;;;;;;0.30;0.30;;;20.20;99.90;;;;;;4935632;29;20238;-77
2021/07/13 00:13:30;;;;;;;0.20;0.20;;;20.30;99.90;;;;;;4935206;29;20206;-77
2021/07/13 00:15:58;;;;;;;0.30;0.30;;;20.30;99.90;;;;;;4934581;29;20734;-76
2021/07/13 00:18:27;;;;;;;0.20;0.20;;;20.20;99.90;;;;;;4935740;29;20715;-76
2021/07/13 00:20:56;;;;;;;0.20;0.20;;;20.20;99.90;;;;;;4935408;29;20206;-77
2021/07/13 00:23:24;;;;;;;0.30;0.30;;;20.10;99.90;;;;;;4935096;29;20267;-76
2021/07/13 00:25:52;;;;;;;0.20;0.20;;;20.20;99.90;;;;;;4934855;29;20553;-77
2021/07/13 00:28:19;;;;;;;0.30;0.30;;;20.20;99.90;;;;;;4934924;29;20222;-77
2021/07/13 00:30:47;;;;;;;0.30;0.30;;;20.20;99.90;;;;;;4935124;29;20272;-77
2021/07/13 00:33:15;;;;;;;0.30;0.30;;;20.00;99.90;;;;;;4935194;29;20664;-77
2021/07/13 00:35:44;;;;;;;0.20;0.20;;;20.00;99.90;;;;;;4934957;29;20627;-77
2021/07/13 00:38:12;;;;;;;0.20;0.20;;;20.00;99.90;;;;;;4934648;29;20284;-77
2021/07/13 00:40:40;;;;;;;0.20;0.20;;;20.10;99.90;;;;;;4935071;29;20257;-77
2021/07/13 00:43:08;;;;;;;0.30;0.30;;;20.10;99.90;;;;;;4934880;29;20221;-77
2021/07/13 00:45:36;;;;;;;0.30;0.30;;;20.20;99.90;;;;;;4934792;29;20210;-77
2021/07/13 00:48:06;;;;;;;0.30;0.30;;;20.20;99.90;;;;;;4934966;29;20226;-77
2021/07/13 00:50:34;;;;;;;0.30;0.30;;;20.20;99.90;;;;;;4934710;29;20233;-77
2021/07/13 00:53:04;;;;;;;0.30;0.30;;;20.10;99.90;;;;;;4934658;29;20226;-77
2021/07/13 00:55:32;;;;;;;0.20;0.20;;;20.10;99.90;;;;;;4934944;29;20230;-77
2021/07/13 00:58:03;;;;;;;0.30;0.30;;;19.90;99.90;;;;;;4934712;29;20285;-77
2021/07/13 01:00:32;;;;;;;0.20;0.20;;;20.00;99.90;;;;;;4934475;29;20703;-77
2021/07/13 01:03:02;;;;;;;0.40;0.40;;;19.90;99.90;;;;;;4934525;29;20226;-77
2021/07/13 01:05:33;;;;;;;0.20;0.20;;;19.90;99.90;;;;;;4935256;29;20246;-77
2021/07/13 01:08:19;;;;;;;0.30;0.30;;;20.00;99.90;;;;;;4934468;29;20230;-77
2021/07/13 01:10:56;;;;;;;0.20;0.20;;;19.90;99.90;;;;;;4934716;29;20217;-77
2021/07/13 01:13:30;;;;;;;0.25;0.25;;;19.90;99.90;;;;;;4934685;29;20627;-77
2021/07/13 01:16:04;;;;;;;0.20;0.20;;;20.00;99.90;;;;;;4934846;29;20213;-77
2021/07/13 01:18:37;;;;;;;0.20;0.20;;;19.90;99.90;;;;;;4934662;29;20245;-77
2021/07/13 01:21:35;;;;;;;0.30;0.30;;;19.90;99.90;;;;;;4935069;29;20210;-77
2021/07/13 01:24:31;;;;;;;0.20;0.20;;;19.80;99.90;;;;;;4934397;29;20226;-77
2021/07/13 01:27:08;;;;;;;0.30;0.30;;;19.70;99.90;;;;;;4934041;29;20304;-77
2021/07/13 01:29:40;;;;;;;0.20;0.20;;;19.70;99.90;;;;;;4935460;29;20206;-77
2021/07/13 01:32:12;;;;;;;0.30;0.30;;;19.60;99.90;;;;;;4935129;29;20205;-77
2021/07/13 01:34:45;;;;;;;0.30;0.30;;;19.50;99.90;;;;;;4934877;29;20229;-77
2021/07/13 01:37:14;;;;;;;0.40;0.40;;;19.60;99.90;;;;;;4934517;29;20225;-77
2021/07/13 01:39:42;;;;;;;0.30;0.30;;;19.40;99.90;;;;;;4933988;29;20234;-76
2021/07/13 01:42:12;;;;;;;0.20;0.20;;;19.50;99.90;;;;;;4934050;29;20209;-77
2021/07/13 01:44:42;;;;;;;0.40;0.40;;;19.40;99.90;;;;;;4933821;29;20698;-77
2021/07/13 01:47:11;;;;;;;0.30;0.30;;;19.50;99.90;;;;;;4933769;29;20710;-77
2021/07/13 01:49:42;;;;;;;0.28;0.28;;;19.40;99.90;;;;;;4934124;29;20209;-77
2021/07/13 01:52:11;;;;;;;0.40;0.40;;;19.20;99.90;;;;;;4934231;29;20230;-77
2021/07/13 01:54:40;;;;;;;0.30;0.30;;;19.40;99.90;;;;;;4934402;29;20281;-77
2021/07/13 01:57:09;;;;;;;0.30;0.30;;;19.40;99.90;;;;;;4934246;29;20778;-76
2021/07/13 01:59:39;;;;;;;0.30;0.30;;;19.40;99.90;;;;;;4934587;29;20734;-77
2021/07/13 02:02:10;;;;;;;0.40;0.40;;;19.20;99.90;;;;;;4934846;29;20206;-77
2021/07/13 02:04:40;;;;;;;0.40;0.40;;;19.20;99.90;;;;;;4934600;29;20261;-77
2021/07/13 02:07:11;;;;;;;0.40;0.40;;;19.20;99.90;;;;;;4934590;29;20277;-77
2021/07/13 02:09:42;;;;;;;0.30;0.30;;;19.30;99.90;;;;;;4934532;29;20206;-77
2021/07/13 02:12:11;;;;;;;0.30;0.30;;;19.20;99.90;;;;;;4934733;29;20206;-77
2021/07/13 02:14:40;;;;;;;0.30;0.30;;;19.30;99.90;;;;;;4934640;29;20210;-76
2021/07/13 02:17:10;;;;;;;0.30;0.30;;;19.20;99.90;;;;;;4934321;29;20285;-77
2021/07/13 02:19:38;;;;;;;0.30;0.30;;;19.30;99.90;;;;;;4934489;29;20687;-77
2021/07/13 02:22:08;;;;;;;0.40;0.40;;;19.20;99.90;;;;;;4934474;29;20202;-77
2021/07/13 02:24:36;;;;;;;0.32;0.32;;;19.10;99.90;;;;;;4934574;29;20226;-77
2021/07/13 02:27:10;;;;;;;0.30;0.30;;;19.00;99.90;;;;;;4934239;29;20289;-77
2021/07/13 02:29:42;;;;;;;0.40;0.40;;;19.10;99.90;;;;;;4934565;29;20213;-77
2021/07/13 02:32:19;;;;;;;0.30;0.30;;;19.00;99.90;;;;;;4934371;29;20202;-77
2021/07/13 02:34:49;;;;;;;0.30;0.30;;;19.00;99.90;;;;;;4934308;29;20205;-77
2021/07/13 02:37:18;;;;;;;0.30;0.30;;;19.10;99.90;;;;;;4935733;29;20222;-77
2021/07/13 02:39:46;;;;;;;0.30;0.30;;;19.10;99.90;;;;;;4938181;29;20202;-76
2021/07/13 02:42:14;;;;;;;0.20;0.20;;;19.20;99.90;;;;;;4938058;29;20202;-77
2021/07/13 02:44:43;;;;;;;0.20;0.20;;;19.30;99.90;;;;;;4938095;29;20222;-77
2021/07/13 02:47:14;;;;;;;0.30;0.30;;;19.10;99.90;;;;;;4937668;29;20222;-77
2021/07/13 02:49:47;;;;;;;0.20;0.20;;;19.00;99.90;;;;;;4937858;29;20202;-77
2021/07/13 02:52:18;;;;;;;0.30;0.30;;;19.10;99.90;;;;;;4937664;29;20269;-77
2021/07/13 02:54:48;;;;;;;0.20;0.20;;;19.10;99.90;;;;;;4937727;29;20225;-76
2021/07/13 02:57:17;;;;;;;0.40;0.40;;;19.00;99.90;;;;;;4937623;29;20229;-76
2021/07/13 02:59:47;;;;;;;0.40;0.40;;;19.00;99.90;;;;;;4937477;29;20214;-77
2021/07/13 03:02:17;;;;;;;0.30;0.30;;;19.00;99.90;;;;;;4937720;29;20257;-77
2021/07/13 03:04:46;;;;;;;0.20;0.20;;;19.00;99.90;;;;;;4937568;29;20636;-77
2021/07/13 03:07:14;;;;;;;0.30;0.30;;;19.10;99.90;;;;;;4937189;29;20226;-77
2021/07/13 03:09:45;;;;;;;0.30;0.30;;;19.10;99.90;;;;;;4937310;29;20308;-77
2021/07/13 03:12:14;;;;;;;0.20;0.20;;;19.10;99.90;;;;;;4937321;29;20266;-76
2021/07/13 03:14:44;;;;;;;0.30;0.30;;;19.00;99.90;;;;;;4937435;29;20202;-77
2021/07/13 03:17:13;;;;;;;0.20;0.20;;;19.00;99.90;;;;;;4936837;29;20300;-77
2021/07/13 03:19:43;;;;;;;0.30;0.30;;;18.90;99.90;;;;;;4937232;29;20206;-77
2021/07/13 03:22:22;;;;;;;0.30;0.30;;;18.90;99.90;;;;;;4937546;29;20280;-77
2021/07/13 03:24:51;;;;;;;0.30;0.30;;;19.00;99.90;;;;;;4937099;29;20281;-77
2021/07/13 03:27:21;;;;;;;0.22;0.22;;;19.10;99.90;;;;;;4937015;29;20237;-77
2021/07/13 03:29:51;;;;;;;0.28;0.28;;;19.10;99.90;;;;;;4936971;29;20738;-77
2021/07/13 03:32:20;;;;;;;0.30;0.30;;;19.10;99.90;;;;;;4937089;29;20202;-76
2021/07/13 03:34:51;;;;;;;0.40;0.40;;;19.10;99.90;;;;;;4936959;29;20281;-77
2021/07/13 03:37:20;;;;;;;0.40;0.40;;;19.20;99.90;;;;;;4936872;29;20281;-76
2021/07/13 03:39:49;;;;;;;0.35;0.35;;;19.10;99.90;;;;;;4937015;29;20261;-77
2021/07/13 03:42:18;;;;;;;0.32;0.32;;;19.00;99.90;;;;;;4936984;29;20957;-77
2021/07/13 03:44:47;;;;;;;0.40;0.40;;;19.10;99.90;;;;;;4936704;29;20569;-77
2021/07/13 03:47:16;;;;;;;0.20;0.20;;;19.20;99.90;;;;;;4936722;29;20222;-77
2021/07/13 03:49:47;;;;;;;0.20;0.20;;;19.20;99.90;;;;;;4935942;29;20618;-77
2021/07/13 03:52:18;;;;;;;0.30;0.30;;;19.20;99.90;;;;;;4936828;29;20210;-77
2021/07/13 03:54:47;;;;;;;0.30;0.30;;;19.30;99.90;;;;;;4936613;29;20212;-76
2021/07/13 03:57:15;;;;;;;0.20;0.20;;;19.30;99.90;;;;;;4936342;29;20277;-77
2021/07/13 03:59:42;;;;;;;0.20;0.20;;;19.30;99.90;;;;;;4936436;29;20214;-77
2021/07/13 04:02:11;;;;;;;0.30;0.30;;;19.30;99.90;;;;;;4936308;29;20738;-77
2021/07/13 04:04:39;;;;;;;0.20;0.20;;;19.30;99.90;;;;;;4936428;29;20229;-77
2021/07/13 04:07:07;;;;;;;0.30;0.30;;;19.30;99.90;;;;;;4936286;29;20233;-77
2021/07/13 04:09:36;;;;;;;0.30;0.30;;;19.70;99.90;;;;;;4936504;29;20206;-77
2021/07/13 04:12:05;;;;;;;0.40;0.40;;;19.30;99.90;;;;;;4936445;29;20202;-77
2021/07/13 04:14:34;;;;;;;0.30;0.30;;;19.30;99.90;;;;;;4936278;29;20206;-77
2021/07/13 04:17:03;;;;;;;0.40;0.40;;;19.60;99.90;;;;;;4951308;23;20234;-73
2021/07/13 04:19:30;;;;;;;0.30;0.30;;;19.40;99.90;;;;;;4974148;28;20225;-73
2021/07/13 04:21:58;;;;;;;0.30;0.30;;;19.50;99.90;;;;;;4974391;28;20681;-74
2021/07/13 04:24:26;;;;;;;0.40;0.40;;;19.50;99.90;;;;;;4974556;28;20290;-75
2021/07/13 04:26:55;;;;;;;0.30;0.30;;;19.30;99.90;;;;;;4974182;28;20205;-75
2021/07/13 04:29:23;;;;;;;0.30;0.30;;;19.60;99.90;;;;;;4974566;28;20204;-75
2021/07/13 04:31:51;;;;;;;0.20;0.20;;;;;;;;;;4974513;28;20208;-75
2021/07/13 04:34:21;;;;;;;0.30;0.30;;;19.60;99.90;;;;;;4974146;28;20251;-75
2021/07/13 04:36:48;;;;;;;0.30;0.30;;;19.80;99.90;;;;;;4973955;28;20263;-75
2021/07/13 04:39:16;;;;;;;0.30;0.30;;;19.50;99.90;;;;;;4974078;28;20208;-76
2021/07/13 04:41:44;;;;;;;0.20;0.20;;;19.70;99.90;;;;;;4964119;28;20212;-75
2021/07/13 04:44:14;;;;;;;0.20;0.20;;;19.70;99.90;;;;;;4973592;28;20565;-74
2021/07/13 04:46:42;;;;;;;0.20;0.20;;;19.80;99.90;;;;;;4973968;28;20259;-74
2021/07/13 04:49:10;;;;;;;0.40;0.40;;;19.80;99.90;;;;;;4973868;28;20228;-74
2021/07/13 04:51:37;;;;;;;0.30;0.30;;;19.80;99.90;;;;;;4973901;28;20260;-74
2021/07/13 04:54:05;;;;;;;0.20;0.20;;;19.90;99.90;;;;;;4973497;28;20205;-74
2021/07/13 04:56:33;;;;;;;0.20;0.20;;;19.80;99.90;;;;;;4973441;28;20280;-74
2021/07/13 04:59:01;;;;;;;0.30;0.30;;;20.00;99.90;;;;;;4973612;28;20232;-75
2021/07/13 05:01:30;;;;;;;0.30;0.30;;;20.00;99.90;;;;;;4972370;28;20228;-74
2021/07/13 05:03:58;;;;;;;0.20;0.20;;;20.00;99.90;;;;;;4972420;28;20220;-74
2021/07/13 05:06:26;;;;;;;0.30;0.30;;;20.00;99.90;;;;;;4983262;28;20223;-74
2021/07/13 05:08:55;;;;;;;0.30;0.30;;;20.10;99.90;;;;;;4974425;28;20229;-74
2021/07/13 05:11:26;;;;;;;0.30;0.30;;;20.30;99.90;;;;;;4968864;28;20200;-74
2021/07/13 05:13:54;;;;;;;0.30;0.30;;;20.30;99.90;;;;;;4983038;28;20204;-77
2021/07/13 05:16:22;;;;;;;0.30;0.30;;;20.50;99.90;;;;;;4992428;28;20558;-75
2021/07/13 05:18:51;;;;;;;0.30;0.30;;;20.50;99.90;;;;;;4994164;28;20260;-77
2021/07/13 05:21:19;;;;;;;0.30;0.30;;;20.50;99.90;;;;;;4977852;28;20663;-79
2021/07/13 05:23:47;;;;;;;0.20;0.20;;;20.60;99.90;;;;;;4963544;28;20670;-76
2021/07/13 05:26:15;;;;;;;0.20;0.20;;;20.70;99.90;;;;;;4953268;28;20702;-77
2021/07/13 05:28:43;;;;;;;0.20;0.20;;;20.80;99.90;;;;;;4954183;29;20729;-76
2021/07/13 05:31:11;;;;;;;0.20;0.20;;;20.90;99.90;;;;;;4954684;29;20725;-75
2021/07/13 05:33:39;;;;;;;0.25;0.25;;;21.00;99.90;;;;;;4954925;29;20264;-76
2021/07/13 05:36:08;;;;;;;0.20;0.20;;;21.00;99.90;;;;;;4953457;29;20205;-74
2021/07/13 05:38:36;;;;;;;0.20;0.20;;;21.00;99.90;;;;;;4953519;29;20226;-74
2021/07/13 05:41:06;;;;;;;0.20;0.20;;;21.10;99.90;;;;;;4972145;28;20243;-75
2021/07/13 05:43:34;;;;;;;0.30;0.30;;;21.10;99.90;;;;;;4971251;28;20271;-76
2021/07/13 05:46:02;;;;;;;0.20;0.20;;;21.20;99.90;;;;;;4955939;28;20572;-75
2021/07/13 05:48:30;;;;;;;0.20;0.20;;;;;;;;;;4953587;29;20229;-75
2021/07/13 05:50:57;;;;;;;0.20;0.20;;;21.30;99.90;;;;;;4953939;29;20205;-75
2021/07/13 05:53:27;;;;;;;0.20;0.20;;;21.40;99.90;;;;;;4953655;29;20655;-75
2021/07/13 05:55:55;;;;;;;0.20;0.20;;;;;;;;;;4953430;29;20236;-75
2021/07/13 05:58:23;;;;;;;0.20;0.20;;;21.50;99.90;;;;;;4953595;29;20221;-75
2021/07/13 06:00:53;;;;;;;0.20;0.20;;;21.70;99.90;;;;;;4953374;29;20245;-75
2021/07/13 06:03:21;;;;;;;0.20;0.20;;;21.70;99.90;;;;;;4953654;29;20252;-75
2021/07/13 06:05:49;;;;;;;0.20;0.20;;;21.80;99.90;;;;;;4953563;29;20758;-75
2021/07/13 06:08:17;;;;;;;0.20;0.20;;;21.90;99.90;;;;;;4953622;29;20707;-75
2021/07/13 06:10:46;;;;;;;0.20;0.20;;;22.10;99.90;;;;;;4953798;29;20228;-76
2021/07/13 06:13:14;;;;;;;0.20;0.20;;;;;;;;;;4956616;28;20206;-75
2021/07/13 06:15:42;;;;;;;0.20;0.20;;;22.40;99.90;;;;;;4957520;29;20205;-75
2021/07/13 06:18:10;;;;;;;0.20;0.20;;;22.50;99.90;;;;;;4957240;29;20718;-75
2021/07/13 06:20:38;;;;;;;0.20;0.20;;;22.60;99.90;;;;;;4957570;29;20212;-75
2021/07/13 06:23:10;;;;;;;0.20;0.20;;;22.80;99.90;;;;;;4957596;29;20339;-75
2021/07/13 06:25:38;;;;;;;0.20;0.20;;;23.70;99.90;;;;;;4956808;29;20229;-75
2021/07/13 06:28:07;;;;;;;0.20;0.20;;;23.00;99.90;;;;;;4957077;29;20280;-75
2021/07/13 06:30:35;;;;;;;0.20;0.20;;;23.10;99.90;;;;;;4957336;29;20242;-76
2021/07/13 06:33:04;;;;;;;0.20;0.20;;;23.10;99.90;;;;;;4957125;29;20216;-76
2021/07/13 06:35:32;;;;;;;0.20;0.20;;;23.30;99.90;;;;;;4956712;29;20674;-76
2021/07/13 06:38:01;;;;;;;0.20;0.20;;;23.30;99.90;;;;;;4956763;29;20233;-75
2021/07/13 06:40:29;;;;;;;0.20;0.20;;;23.50;99.90;;;;;;4956790;29;20205;-76
2021/07/13 06:42:57;;;;;;;0.20;0.20;;;;;;;;;;4957060;29;20205;-76
2021/07/13 06:45:27;;;;;;;0.20;0.20;;;23.40;99.90;;;;;;4956430;29;20541;-75
2021/07/13 06:47:55;;;;;;;0.10;0.10;;;23.50;99.90;;;;;;4956991;29;20568;-75
2021/07/13 06:50:23;;;;;;;0.20;0.20;;;23.60;99.90;;;;;;4956943;29;20260;-76
2021/07/13 06:52:52;;;;;;;0.20;0.20;;;23.40;99.90;;;;;;4956531;29;20205;-75
2021/07/13 06:55:20;;;;;;;0.20;0.20;;;23.70;99.90;;;;;;4956692;29;20260;-76
2021/07/13 06:57:48;;;;;;;0.20;0.20;;;23.70;99.90;;;;;;4956504;29;20225;-76
2021/07/13 07:00:16;;;;;;;0.20;0.20;;;23.80;99.90;;;;;;4956591;29;20205;-76
2021/07/13 07:02:46;;;;;;;0.20;0.20;;;23.90;99.90;;;;;;4956570;29;20249;-75
2021/07/13 07:05:14;;;;;;;0.20;0.20;;;24.00;99.90;;;;;;4956293;29;20252;-75
2021/07/13 07:07:44;;;;;;;0.20;0.20;;;24.00;99.90;;;;;;4956127;29;20237;-75
2021/07/13 07:10:13;;;;;;;0.20;0.20;;;24.10;99.90;;;;;;4956407;29;20666;-75
2021/07/13 07:12:41;;;;;;;0.10;0.10;;;24.10;99.90;;;;;;4956361;29;20241;-75
2021/07/13 07:15:10;;;;;;;0.10;0.10;;;24.10;99.90;;;;;;4956315;29;20206;-75
2021/07/13 07:17:47;;;;;;;0.20;0.20;;;24.20;99.90;;;;;;4956093;29;20261;-75
2021/07/13 07:20:16;;;;;;;0.20;0.20;;;24.20;99.90;;;;;;4956380;29;20189;-75
2021/07/13 07:22:45;;;;;;;0.20;0.20;;;;;;;;;;4955939;28;20209;-75
2021/07/13 07:25:14;;;;;;;0.20;0.20;;;24.10;99.90;;;;;;4955525;29;20209;-75
2021/07/13 07:27:42;;;;;;;0.20;0.20;;;24.20;99.90;;;;;;4956295;29;20281;-76
2021/07/13 07:30:12;;;;;;;0.20;0.20;;;24.20;99.90;;;;;;4956046;29;20212;-76
2021/07/13 07:32:41;;;;;;;0.10;0.10;;;24.20;99.90;;;;;;4955836;29;20216;-76
2021/07/13 07:35:12;;;;;;;0.20;0.20;;;24.30;99.90;;;;;;4956048;29;20682;-76
2021/07/13 07:37:40;;;;;;;0.20;0.20;;;24.40;99.90;;;;;;4955841;29;20225;-75
2021/07/13 07:40:10;;;;;;;0.20;0.20;;;24.40;99.90;;;;;;4956042;29;20206;-76
2021/07/13 07:42:39;;;;;;;0.10;0.10;;;24.40;99.90;;;;;;4955754;29;20205;-76
2021/07/13 07:45:08;;;;;;;0.20;0.20;;;24.50;99.90;;;;;;4956219;29;20205;-76
2021/07/13 07:47:36;;;;;;;0.20;0.20;;;24.60;99.90;;;;;;4955503;29;20225;-76
2021/07/13 07:50:05;;;;;;;0.10;0.10;;;24.70;99.90;;;;;;4956056;29;20288;-76
2021/07/13 07:52:35;;;;;;;0.10;0.10;;;24.80;99.90;;;;;;4955515;29;20229;-76
2021/07/13 07:55:04;;;;;;;0.20;0.20;;;24.80;99.90;;;;;;4955639;29;20662;-76
2021/07/13 07:57:32;;;;;;;0.10;0.10;;;24.90;99.90;;;;;;4955330;29;20225;-76
2021/07/13 08:00:01;;;;;;;0.20;0.20;;;24.80;99.90;;;;;;4955549;29;20249;-76
2021/07/13 08:02:29;;;;;;;0.20;0.20;;;24.80;99.90;;;;;;4955681;29;20210;-76
2021/07/13 08:04:56;;;;;;;0.20;0.20;;;24.90;99.90;;;;;;4955455;29;20550;-76
2021/07/13 08:07:24;;;;;;;0.20;0.20;;;25.00;99.90;;;;;;4955086;29;20237;-76
2021/07/13 08:09:54;;;;;;;0.10;0.10;;;25.00;99.90;;;;;;4955748;29;20291;-76
2021/07/13 08:12:22;;;;;;;0.20;0.20;;;25.00;99.90;;;;;;4955330;29;20205;-76
2021/07/13 08:14:50;;;;;;;0.10;0.10;;;25.00;99.90;;;;;;4955340;29;20205;-76
2021/07/13 08:17:19;;;;;;;0.15;0.15;;;25.10;99.90;;;;;;4954737;29;20221;-76
2021/07/13 08:19:48;;;;;;;0.10;0.10;;;25.10;99.90;;;;;;4954172;29;20228;-76
2021/07/13 08:22:16;;;;;;;0.17;0.17;;;;;;;;;;4954270;29;20233;-76
2021/07/13 08:24:46;;;;;;;0.20;0.20;;;25.30;99.90;;;;;;4954014;29;20252;-76
2021/07/13 08:27:16;;;;;;;0.20;0.20;;;25.30;99.90;;;;;;4954015;29;20260;-76
2021/07/13 08:29:44;;;;;;;0.10;0.10;;;25.30;99.90;;;;;;4954170;29;20205;-77
2021/07/13 08:32:12;;;;;;;0.20;0.20;;;;;;;;;;4954212;29;20209;-76
2021/07/13 08:34:40;;;;;;;0.20;0.20;;;25.50;99.90;;;;;;4953936;28;20209;-76
2021/07/13 08:37:08;;;;;;;0.10;0.10;;;25.50;99.90;;;;;;4953616;29;20202;-76
2021/07/13 08:39:36;;;;;;;0.20;0.20;;;25.60;99.90;;;;;;4954276;29;20205;-76
2021/07/13 08:42:05;;;;;;;0.20;0.20;;;25.60;99.90;;;;;;4954109;29;20244;-77
2021/07/13 08:44:36;;;;;;;0.20;0.20;;;25.70;99.90;;;;;;4954094;29;20209;-76
2021/07/13 08:47:04;;;;;;;0.10;0.10;;;25.80;99.90;;;;;;4953617;29;20249;-76
2021/07/13 08:49:32;;;;;;;0.20;0.20;;;25.80;99.90;;;;;;4953609;29;20209;-76
2021/07/13 08:52:00;;;;;;;0.10;0.10;;;25.90;99.90;;;;;;4954400;29;20283;-76
2021/07/13 08:54:28;;;;;;;0.10;0.10;;;26.00;99.90;;;;;;4953866;29;20667;-76
2021/07/13 08:56:56;;;;;;;0.10;0.10;;;26.00;99.90;;;;;;4953606;29;20666;-76
2021/07/13 08:59:23;;;;;;;0.10;0.10;;;26.10;99.90;;;;;;4954407;29;20252;-77
2021/07/13 09:01:52;;;;;;;0.20;0.20;;;26.20;99.90;;;;;;4953608;29;20264;-76
2021/07/13 09:04:20;;;;;;;0.10;0.10;;;26.40;99.90;;;;;;4953436;29;20237;-76
2021/07/13 09:06:50;;;;;;;0.20;0.20;;;26.60;99.90;;;;;;4953406;29;20205;-76
2021/07/13 09:09:27;;;;;;;0.10;0.10;;;26.60;99.90;;;;;;4953843;29;20209;-76
2021/07/13 09:12:09;;;;;;;0.10;0.10;;;26.80;99.90;;;;;;4954137;29;20252;-77
2021/07/13 09:14:55;;;;;;;0.10;0.10;;;26.90;99.90;;;;;;4953999;29;20205;-77
2021/07/13 09:17:29;;;;;;;0.10;0.10;;;27.00;99.90;;;;;;4918937;29;1007416;-76
2021/07/13 09:20:09;;;;;;;0.10;0.10;;;27.20;99.90;;;;;;4954511;29;20212;-77
2021/07/13 09:22:38;;;;;;;0.10;0.10;;;27.20;99.90;;;;;;4954144;29;20205;-76
2021/07/13 09:25:31;;;;;;;0.10;0.10;;;27.40;99.90;;;;;;4954202;29;20733;-74
2021/07/13 09:28:16;;;;;;;0.10;0.10;;;27.40;99.90;;;;;;4953980;29;20312;-74
2021/07/13 09:30:47;;;;;;;0.10;0.10;;;27.30;99.90;;;;;;4954101;29;20201;-75
2021/07/13 09:33:22;;;;;;;0.10;0.10;;;27.40;99.90;;;;;;4953927;29;20296;-75
2021/07/13 09:36:05;;;;;;;0.10;0.10;;;27.50;99.90;;;;;;4954029;29;20208;-76
2021/07/13 09:38:35;;;;;;;0.10;0.10;;;27.50;99.90;;;;;;4954023;29;20220;-76
2021/07/13 09:41:07;;;;;;;0.10;0.10;;;27.40;99.60;;;;;;4954018;29;20686;-76
2021/07/13 09:43:47;;;;;;;0.10;0.10;;;27.40;99.40;;;;;;4953914;29;20213;-75
2021/07/13 09:46:29;;;;;;;0.10;0.10;;;27.50;98.70;;;;;;4954770;28;20205;-75
2021/07/13 09:49:14;;;;;;;0.10;0.10;;;27.40;98.20;;;;;;4960140;29;20276;-76
2021/07/13 09:51:45;;;;;;;0.10;0.10;;;27.50;97.80;;;;;;4960237;28;20215;-76
2021/07/13 09:54:38;;;;;;;0.10;0.10;;;27.60;97.80;;;;;;4960069;29;20241;-76
2021/07/13 09:57:15;;;;;;;0.10;0.10;;;27.70;97.60;;;;;;4960114;29;20276;-76
2021/07/13 09:59:44;;;;;;;0.10;0.10;;;27.80;97.60;;;;;;4960604;28;20272;-76
2021/07/13 10:02:12;;;;;;;0.10;0.10;;;27.80;97.40;;;;;;4960143;29;20205;-76
2021/07/13 10:04:41;;;;;;;0.10;0.10;;;27.90;97.70;;;;;;4959901;28;20637;-76
2021/07/13 10:07:12;;;;;;;0.10;0.10;;;28.00;97.70;;;;;;4959677;29;20686;-76
2021/07/13 10:09:43;;;;;;;0.10;0.10;;;27.90;97.30;;;;;;4960115;28;20228;-76
2021/07/13 10:12:14;;;;;;;0.10;0.10;;;27.90;96.90;;;;;;4960373;28;20205;-76
2021/07/13 10:14:45;;;;;;;0.10;0.10;;;28.00;97.20;;;;;;4960185;29;20674;-77
2021/07/13 10:17:13;;;;;;;0.10;0.10;;;28.20;99.90;;;;;;4982807;23;20229;-82
2021/07/13 10:19:47;;;;;;;0.10;0.10;;;29.20;99.90;;;;;;4966995;29;20209;-82
2021/07/13 10:22:16;;;;;;;0.10;0.10;;;28.10;97.20;;;;;;4966054;29;20236;-81
2021/07/13 10:24:45;;;;;;;0.10;0.10;;;28.20;97.10;;;;;;4964406;29;20224;-83
2021/07/13 10:27:14;;;;;;;0.10;0.10;;;28.30;99.90;;;;;;4965005;28;20202;-83
2021/07/13 10:29:44;;;;;;;0.10;0.10;;;28.30;97.20;;;;;;4964430;29;20646;-83
2021/07/13 10:32:37;;;;;;;0.10;0.10;;;28.40;97.20;;;;;;4964756;28;20670;-82
2021/07/13 10:35:23;;;;;;;0.10;0.10;;;28.50;96.60;;;;;;4964706;29;20266;-80
2021/07/13 10:37:52;;;;;;;0.10;0.10;;;28.50;97.40;;;;;;4965107;28;20593;-82
2021/07/13 10:40:40;;;;;;;0.10;0.10;;;28.50;97.60;;;;;;4965660;29;20209;-82
2021/07/13 10:43:17;;;;;;;0.10;0.10;;;28.60;96.70;;;;;;4965588;28;20233;-81
2021/07/13 10:45:46;;;;;;;0.10;0.10;;;28.80;96.20;;;;;;4965691;28;20264;-83
2021/07/13 10:48:16;;;;;;;0.10;0.10;;;29.00;96.20;;;;;;4966314;29;20225;-81
2021/07/13 10:50:51;;;;;;;0.10;0.10;;;29.20;95.20;;;;;;4966526;29;20288;-80
2021/07/13 10:53:29;;;;;;;0.10;0.10;;;29.30;94.70;;;;;;4965301;29;20673;-83
2021/07/13 10:56:02;;;;;;;0.10;0.10;;;29.20;94.80;;;;;;4965172;28;20581;-81
2021/07/13 10:58:36;;;;;;;0.10;0.10;;;29.40;94.80;;;;;;4964554;28;20221;-83
2021/07/13 11:01:15;;;;;;;0.10;0.10;;;29.40;94.00;;;;;;4963324;29;20304;-82
2021/07/13 11:04:04;;;;;;;0.10;0.10;;;29.40;93.80;;;;;;4962963;29;20224;-83
2021/07/13 11:07:05;;;;;;;0.10;0.10;;;29.30;93.90;;;;;;4963121;29;20205;-82
2021/07/13 11:09:38;;;;;;;0.10;0.10;;;29.50;94.70;;;;;;4966577;29;20229;-81
2021/07/13 11:12:27;;;;;;;0.10;0.10;;;29.50;94.10;;;;;;4967184;29;20697;-82
2021/07/13 11:14:59;;;;;;;0.10;0.10;;;29.60;92.80;;;;;;4966848;29;20205;-81
2021/07/13 11:17:29;;;;;;;0.10;0.10;;;29.50;93.10;;;;;;4968263;29;20233;-78
2021/07/13 11:20:06;;;;;;;0.10;0.10;;;29.60;93.20;;;;;;4969520;29;20205;-80
2021/07/13 11:22:38;;;;;;;0.10;0.10;;;29.50;93.70;;;;;;4968582;29;20201;-81
2021/07/13 11:25:07;;;;;;;0.10;0.10;;;29.60;92.30;;;;;;4969434;29;20217;-82
2021/07/13 11:27:36;;;;;;;0.10;0.10;;;29.60;92.80;;;;;;4968061;29;20222;-79
2021/07/13 11:30:04;;;;;;;0.10;0.10;;;29.60;92.80;;;;;;4966720;29;20256;-82
2021/07/13 11:32:32;;;;;;;0.10;0.10;;;29.60;94.20;;;;;;4967576;29;20237;-82
2021/07/13 11:35:00;;;;;;;0.10;0.10;;;29.60;92.50;;;;;;4967675;29;20201;-81
2021/07/13 11:37:29;;;;;;;0.10;0.10;;;29.80;92.50;;;;;;4966515;29;20221;-80
2021/07/13 11:40:07;;;;;;;0.10;0.10;;;29.90;91.60;;;;;;4966533;29;20226;-79
2021/07/13 11:42:35;;;;;;;0.10;0.10;;;29.90;91.10;;;;;;4965289;29;20212;-82
2021/07/13 11:45:05;;;;;;;0.10;0.10;;;30.00;94.70;;;;;;4961475;29;20237;-82
2021/07/13 11:47:33;;;;;;;0.10;0.10;;;30.20;91.00;;;;;;4961794;29;20261;-82
2021/07/13 11:50:01;;;;;;;0.10;0.10;;;30.30;91.30;;;;;;4961520;29;20251;-82
2021/07/13 11:52:29;;;;;;;0.10;0.10;;;30.30;90.60;;;;;;4961740;29;20205;-82
2021/07/13 11:55:00;;;;;;;0.10;0.10;;;30.30;90.00;;;;;;4962073;29;20636;-82
2021/07/13 11:57:29;;;;;;;0.10;0.10;;;30.30;91.00;;;;;;4961503;29;20253;-81
2021/07/13 11:59:57;;;;;;;0.10;0.10;;;30.30;88.90;;;;;;4961890;29;20264;-82
2021/07/13 12:02:25;;;;;;;0.10;0.10;;;30.30;88.00;;;;;;4961997;29;20209;-82
2021/07/13 12:04:53;;;;;;;0.10;0.10;;;30.50;87.30;;;;;;4962075;29;20233;-82
2021/07/13 12:07:21;;;;;;;0.10;0.10;;;30.60;93.10;;;;;;4962142;29;20205;-81
2021/07/13 12:09:49;;;;;;;0.10;0.10;;;30.70;87.70;;;;;;4961156;28;20246;-81
2021/07/13 12:12:18;;;;;;;0.10;0.10;;;30.80;86.30;;;;;;4961973;29;20682;-82
2021/07/13 12:14:52;;;;;;;0.10;0.10;;;30.90;85.30;;;;;;4961091;29;20670;-82
2021/07/13 12:17:21;;;;;;;0.10;0.10;;;31.20;90.60;;;;;;4960135;29;20264;-82
2021/07/13 12:19:50;;;;;;;0.10;0.10;;;31.10;84.10;;;;;;4961020;29;20696;-81
2021/07/13 12:22:21;;;;;;;0.10;0.10;;;31.40;83.20;;;;;;4961488;29;20209;-81
2021/07/13 12:24:53;;;;;;;0.10;0.10;;;31.60;83.30;;;;;;4960954;29;20286;-81
2021/07/13 12:27:21;;;;;;;0.10;0.10;;;31.60;87.80;;;;;;4960831;29;20475;-82
2021/07/13 12:29:53;;;;;;;0.10;0.10;;;31.80;80.80;;;;;;4962160;29;20268;-81
2021/07/13 12:32:25;;;;;;;0.10;0.10;;;32.10;80.50;;;;;;4961425;29;20630;-82
2021/07/13 12:34:55;;;;;;;0.10;0.10;;;32.50;80.20;;;;;;4963299;29;20216;-82
2021/07/13 12:37:26;;;;;;;0.10;0.10;;;33.00;78.40;;;;;;4960543;29;20261;-82
2021/07/13 12:40:07;;;;;;;0.10;0.10;;;33.10;76.10;;;;;;4961221;29;20201;-82
2021/07/13 12:42:38;;;;;;;0.10;0.10;;;33.20;74.70;;;;;;4961166;29;20205;-82
2021/07/13 12:45:15;;;;;;;0.10;0.10;;;33.50;73.90;;;;;;4966064;29;20229;-81
2021/07/13 12:47:46;;;;;;;0.08;0.08;;;33.70;73.30;;;;;;4964042;29;20224;-81
2021/07/13 12:50:22;;;;;;;0.10;0.10;;;34.40;73.30;;;;;;4966812;29;20251;-81
2021/07/13 12:52:57;;;;;;;0.05;0.05;;;34.90;71.60;;;;;;4968397;29;20232;-81
2021/07/13 12:55:28;;;;;;;0.00;0.00;;;35.50;69.00;;;;;;4962801;29;20291;-82
2021/07/13 12:58:09;;;;;;;0.00;0.00;;;36.00;67.50;;;;;;4967726;29;20244;-82
2021/07/13 13:00:40;;;;;;;0.10;0.10;;;36.20;64.50;;;;;;4964562;29;20193;-84
2021/07/13 13:03:10;;;;;;;0.10;0.10;;;36.20;62.70;;;;;;4961838;29;20674;-83
2021/07/13 13:05:40;;;;;;;0.00;0.00;;;36.30;61.30;;;;;;4960101;29;20276;-82
2021/07/13 13:08:10;;;;;;;0.10;0.10;;;36.80;60.00;;;;;;4960578;29;20251;-82